Moleson — HBLE — position and weather

sailwx.info

Track history (hours):
 
Tides and Currents Weather Stations Pressure Air Temp Water Temp Dewpoint Dewpoint Depression Visibility Wind Speed Wind Dir Waves Ship Positions

Moleson

Last reported at 2015-Mar-20 08:08 UTC. Time now 2015-Apr-02 06:37 UTC.
Position S 33°42' W 059°37'.
Warning: this ship's position is 12 days out of date.

Length 181 m; draft 6 m.

Type: Ship. MMSI: 269039000.

Date/timePositionNaut miles runAvg speedWind from/ knotsBaromVisibWave heightAir tempDewpointWater temp
2015-Mar-20 08:08S 33°42' W 059°37'4 6.9
2015-Mar-20 07:30S 33°39' W 059°33'7 6.8
2015-Mar-20 06:31S 33°43' W 059°27'9 9.3
2015-Mar-20 05:33S 33°43' W 059°17'7 6.8
2015-Mar-20 04:33S 33°49' W 059°13'9 8.6
2015-Mar-20 03:33S 33°55' W 059°05'8 7.6
2015-Mar-20 02:33S 33°54' W 058°56'8 7.6
2015-Mar-20 01:34S 33°57' W 058°47'1010.0
2015-Mar-20 00:33S 34°02' W 058°37'1110.6
2015-Mar-19 23:33S 34°00' W 058°25'1010.0
2015-Mar-19 22:34S 34°09' W 058°18'1212.2
2015-Mar-19 21:33S 34°14' W 058°05'1312.8
2015-Mar-19 20:33S 34°25' W 057°58'1312.7
2015-Mar-19 19:33S 34°38' W 057°58'3 3.2
2015-Mar-19 18:33S 34°41' W 057°57'8 7.5
2015-Mar-19 17:33S 34°45' W 057°49'10 9.7
2015-Mar-19 16:33S 34°45' W 057°38'160 9.9
2015-Mar-19 00:19S 35°00' W 054°23'911.2
2015-Mar-18 23:32S 34°59' W 054°13'1111.2
2015-Mar-18 22:33S 34°56' W 053°60'2211.1
2015-Mar-18 20:32S 34°52' W 053°33'  
Track history (hours):
 
Tides and Currents Weather Stations Pressure Air Temp Water Temp Dewpoint Dewpoint Depression Visibility Wind Speed Wind Dir Waves Ship Positions

Moleson

Last reported at 2015-Mar-20 08:08 UTC. Time now 2015-Apr-02 06:37 UTC.
Position S 33°42' W 059°37'.
Warning: this ship's position is 12 days out of date.

Length 181 m; draft 6 m.

Type: Ship. MMSI: 269039000.

Date/timePositionNaut miles runAvg speedWind from/ knotsBaromVisibWave heightAir tempDewpointWater temp
2015-Mar-20 08:08S 33°42' W 059°37'4 6.9
2015-Mar-20 07:30S 33°39' W 059°33'7 6.8
2015-Mar-20 06:31S 33°43' W 059°27'9 9.3
2015-Mar-20 05:33S 33°43' W 059°17'7 6.8
2015-Mar-20 04:33S 33°49' W 059°13'9 8.6
2015-Mar-20 03:33S 33°55' W 059°05'8 7.6
2015-Mar-20 02:33S 33°54' W 058°56'8 7.6
2015-Mar-20 01:34S 33°57' W 058°47'1010.0
2015-Mar-20 00:33S 34°02' W 058°37'1110.6
2015-Mar-19 23:33S 34°00' W 058°25'1010.0
2015-Mar-19 22:34S 34°09' W 058°18'1212.2
2015-Mar-19 21:33S 34°14' W 058°05'1312.8
2015-Mar-19 20:33S 34°25' W 057°58'1312.7
2015-Mar-19 19:33S 34°38' W 057°58'3 3.2
2015-Mar-19 18:33S 34°41' W 057°57'8 7.5
2015-Mar-19 17:33S 34°45' W 057°49'10 9.7
2015-Mar-19 16:33S 34°45' W 057°38'160 9.9
2015-Mar-19 00:19S 35°00' W 054°23'911.2
2015-Mar-18 23:32S 34°59' W 054°13'1111.2
2015-Mar-18 22:33S 34°56' W 053°60'2211.1
2015-Mar-18 20:32S 34°52' W 053°33'  

Dump ship's entire track history